Flight Track Log - Related Links

Times and Time Zones

All times are in EST time to prevent confusion due to time zone crossing. See the AAR8736 flight status page for this flight to view local times or setup timezone preferences in your user account.

Time Position Orientation Groundspeed Altitude Reporting Facility
EST Latitude Longitude Course Direction KTS MPH feet Rate Location/Type
Fri 02:27:00 AM 35.1346 127.5287 346° North  Level Estimated
Fri 02:28:00 AM 35.2083 127.5069 346° North  Level Estimated
Fri 02:29:00 AM 35.2820 127.4851 346° North  Level Estimated
Fri 02:30:00 AM 35.3557 127.4633 346° North  Level Estimated
Fri 02:31:00 AM 35.4293 127.4414 346° North  Level Estimated
Fri 02:32:00 AM 35.5030 127.4195 346° North  Level Estimated
Fri 02:33:00 AM 35.5767 127.3975 346° North  Level Estimated
Fri 02:34:00 AM 35.6503 127.3755 346° North  Level Estimated
Fri 02:35:00 AM 35.7240 127.3535 346° North  Level Estimated
Fri 02:36:00 AM 35.7977 127.3314 346° North  Level Estimated
Fri 02:37:00 AM 35.8713 127.3093 346° North  Level Estimated
Fri 02:38:00 AM 35.9450 127.2871 346° North  Level Estimated
Fri 02:39:00 AM 36.0186 127.2649 346° North  Level Estimated
Fri 02:40:00 AM 36.0922 127.2427 346° North  Level Estimated
Fri 02:41:00 AM 36.1659 127.2204 346° North  Level Estimated
Fri 02:42:00 AM 36.2395 127.1981 346° North  Level Estimated
Fri 02:43:00 AM 36.3131 127.1757 346° North  Level Estimated
Fri 02:44:00 AM 36.3868 127.1533 346° North  Level Estimated
Fri 02:45:00 AM 36.4604 127.1308 346° North  Level Estimated
Fri 02:46:00 AM 36.5340 127.1083 346° North  Level Estimated
Fri 02:47:00 AM 36.6076 127.0858 346° North  Level Estimated
Fri 02:48:00 AM 36.6812 127.0632 346° North  Level Estimated
Fri 02:49:00 AM 36.7548 127.0406 346° North  Level Estimated
Fri 02:50:00 AM 36.8284 127.0179 346° North  Level Estimated
Fri 02:51:00 AM 36.9020 126.9952 346° North  Level Estimated
Fri 02:52:00 AM 36.9756 126.9724 346° North  Level Estimated
Fri 02:53:00 AM 37.0492 126.9496 346° North  Level Estimated
Fri 02:54:00 AM 37.1228 126.9268 346° North  Level Estimated
Fri 02:55:00 AM 37.1964 126.9039 346° North  Level Estimated
Fri 02:56:00 AM 37.2699 126.8809 346° North  Level Estimated
Fri 02:57:00 AM 37.3435 126.8580 346° North  Level Estimated
Fri 02:58:00 AM 37.4170 126.8349 346° North  Level Estimated
Fri 02:59:00 AM 37.4906 126.8119 346° North  Level Estimated
Fri 03:00:00 AM 37.5583 126.7906 346° North  Level Estimated
Fri 03:01:00 AM 37.5583 126.7906 288° West  Level Estimated
Fri 03:02:00 AM 37.5583 126.7906 288° West  Level Estimated
Fri 03:03:00 AM 37.5583 126.7906 288° West  Level Estimated
Fri 03:04:00 AM 37.5583 126.7906 288° West  Level Estimated
Fri 03:05:00 AM 37.5583 126.7906 288° West  Level Estimated
Fri 03:06:00 AM 37.5583 126.7906 288° West  Level Estimated
Fri 03:07:00 AM 37.5583 126.7906 288° West  Level Estimated
Fri 03:08:00 AM 37.5583 126.7906 288° West  Level Estimated
Fri 03:09:00 AM 37.5583 126.7906 288° West  Level Estimated
Fri 03:10:00 AM 37.5583 126.7906 288° West  Level Estimated
Fri 03:11:00 AM 37.5583 126.7906 288° West  Level Estimated
Fri 03:12:00 AM 37.5583 126.7906 288° West  Level Estimated
Fri 03:13:00 AM 37.5583 126.7906 288° West  Level Estimated
Fri 03:14:00 AM 37.5583 126.7906 288° West  Level Estimated

Login

Don't have an account? Register now (free) for customized features, flight alerts, and more!